sensor_id;sensor_type;location;lat;lon;timestamp;pressure;altitude;pressure_sealevel;temperature;humidity
62617;BME280;62539;51.190;6.808;2022-11-03T00:02:02;101391.50;;;19.62;58.69
62617;BME280;62539;51.190;6.808;2022-11-03T00:04:28;101390.69;;;19.60;58.90
62617;BME280;62539;51.190;6.808;2022-11-03T00:06:54;101392.44;;;19.59;58.52
62617;BME280;62539;51.190;6.808;2022-11-03T00:09:21;101391.78;;;19.51;57.92
62617;BME280;62539;51.190;6.808;2022-11-03T00:11:49;101396.16;;;19.52;57.84
62617;BME280;62539;51.190;6.808;2022-11-03T00:14:16;101393.44;;;19.55;58.28
62617;BME280;62539;51.190;6.808;2022-11-03T00:16:42;101385.63;;;19.52;58.13
62617;BME280;62539;51.190;6.808;2022-11-03T00:19:09;101385.63;;;19.52;58.39
62617;BME280;62539;51.190;6.808;2022-11-03T00:21:36;101374.25;;;19.51;58.23
62617;BME280;62539;51.190;6.808;2022-11-03T00:24:03;101366.44;;;19.48;58.11
62617;BME280;62539;51.190;6.808;2022-11-03T00:26:31;101373.47;;;19.48;58.08
62617;BME280;62539;51.190;6.808;2022-11-03T00:29:05;101378.78;;;19.46;58.45
62617;BME280;62539;51.190;6.808;2022-11-03T00:31:34;101370.81;;;19.48;58.36
62617;BME280;62539;51.190;6.808;2022-11-03T00:34:01;101365.56;;;19.48;58.19
62617;BME280;62539;51.190;6.808;2022-11-03T00:36:32;101368.19;;;19.48;58.42
62617;BME280;62539;51.190;6.808;2022-11-03T00:38:58;101354.22;;;19.46;58.36
62617;BME280;62539;51.190;6.808;2022-11-03T00:41:25;101350.78;;;19.44;58.02
62617;BME280;62539;51.190;6.808;2022-11-03T00:43:52;101356.03;;;19.44;58.51
62617;BME280;62539;51.190;6.808;2022-11-03T00:46:19;101351.69;;;19.43;59.21
62617;BME280;62539;51.190;6.808;2022-11-03T00:48:46;101350.78;;;19.44;58.94
62617;BME280;62539;51.190;6.808;2022-11-03T00:53:56;101338.97;;;19.27;56.90
62617;BME280;62539;51.190;6.808;2022-11-03T00:56:31;101345.94;;;19.28;57.30
62617;BME280;62539;51.190;6.808;2022-11-03T00:59:02;101350.28;;;19.31;57.69
62617;BME280;62539;51.190;6.808;2022-11-03T01:01:32;101344.22;;;19.27;57.18
62617;BME280;62539;51.190;6.808;2022-11-03T01:03:59;101346.81;;;19.29;57.67
62617;BME280;62539;51.190;6.808;2022-11-03T01:06:48;101342.50;;;19.26;57.37
62617;BME280;62539;51.190;6.808;2022-11-03T01:09:23;101345.44;;;19.15;56.98
62617;BME280;62539;51.190;6.808;2022-11-03T01:14:41;101337.50;;;19.17;57.22
62617;BME280;62539;51.190;6.808;2022-11-03T01:17:19;101341.03;;;19.16;57.80
62617;BME280;62539;51.190;6.808;2022-11-03T01:19:46;101335.78;;;19.16;57.18
62617;BME280;62539;51.190;6.808;2022-11-03T01:22:14;101333.16;;;19.16;57.18
62617;BME280;62539;51.190;6.808;2022-11-03T01:24:40;101328.78;;;19.15;57.41
62617;BME280;62539;51.190;6.808;2022-11-03T01:27:09;101321.16;;;19.05;56.35
62617;BME280;62539;51.190;6.808;2022-11-03T01:29:37;101319.44;;;19.04;57.08
62617;BME280;62539;51.190;6.808;2022-11-03T01:32:03;101322.06;;;19.04;57.19
62617;BME280;62539;51.190;6.808;2022-11-03T01:34:29;101321.06;;;19.08;57.40
62617;BME280;62539;51.190;6.808;2022-11-03T01:36:54;101310.56;;;19.08;57.27
62617;BME280;62539;51.190;6.808;2022-11-03T01:39:20;101309.88;;;19.02;57.45
62617;BME280;62539;51.190;6.808;2022-11-03T01:41:49;101296.66;;;19.03;57.41
62617;BME280;62539;51.190;6.808;2022-11-03T01:46:45;101288.88;;;19.00;57.29
62617;BME280;62539;51.190;6.808;2022-11-03T01:49:17;101284.56;;;18.98;57.38
62617;BME280;62539;51.190;6.808;2022-11-03T01:51:53;101287.22;;;18.98;57.38
62617;BME280;62539;51.190;6.808;2022-11-03T01:54:26;101280.22;;;18.97;57.08
62617;BME280;62539;51.190;6.808;2022-11-03T01:56:53;101267.84;;;19.00;57.72
62617;BME280;62539;51.190;6.808;2022-11-03T01:59:21;101273.19;;;18.97;57.08
62617;BME280;62539;51.190;6.808;2022-11-03T02:01:48;101268.81;;;18.98;57.79
62617;BME280;62539;51.190;6.808;2022-11-03T02:04:21;101261.81;;;18.95;57.69
62617;BME280;62539;51.190;6.808;2022-11-03T02:07:04;101254.97;;;18.89;56.76
62617;BME280;62539;51.190;6.808;2022-11-03T02:09:39;101252.38;;;18.88;57.41
62617;BME280;62539;51.190;6.808;2022-11-03T02:12:06;101251.66;;;18.83;56.91
62617;BME280;62539;51.190;6.808;2022-11-03T02:14:39;101246.34;;;18.84;57.54
62617;BME280;62539;51.190;6.808;2022-11-03T02:17:15;101247.22;;;18.85;57.56
62617;BME280;62539;51.190;6.808;2022-11-03T02:20:07;101244.47;;;18.89;57.89
62617;BME280;62539;51.190;6.808;2022-11-03T02:22:51;101238.31;;;18.89;58.18
62617;BME280;62539;51.190;6.808;2022-11-03T02:25:46;101241.88;;;18.88;58.42
62617;BME280;62539;51.190;6.808;2022-11-03T02:28:24;101234.88;;;18.87;57.96
62617;BME280;62539;51.190;6.808;2022-11-03T02:33:46;101228.81;;;18.85;57.50
62617;BME280;62539;51.190;6.808;2022-11-03T02:36:23;101221.00;;;18.81;57.87
62617;BME280;62539;51.190;6.808;2022-11-03T02:39:05;101210.59;;;18.78;57.81
62617;BME280;62539;51.190;6.808;2022-11-03T02:41:37;101204.38;;;18.81;57.63
62617;BME280;62539;51.190;6.808;2022-11-03T02:44:07;101198.34;;;18.77;57.27
62617;BME280;62539;51.190;6.808;2022-11-03T02:46:41;101195.63;;;18.80;58.09
62617;BME280;62539;51.190;6.808;2022-11-03T02:49:08;101194.72;;;18.81;58.07
62617;BME280;62539;51.190;6.808;2022-11-03T02:51:33;101188.63;;;18.81;57.85
62617;BME280;62539;51.190;6.808;2022-11-03T02:54:03;101183.38;;;18.79;58.06
62617;BME280;62539;51.190;6.808;2022-11-03T02:56:39;101179.03;;;18.78;58.46
62617;BME280;62539;51.190;6.808;2022-11-03T02:59:13;101178.94;;;18.81;58.40
62617;BME280;62539;51.190;6.808;2022-11-03T03:01:54;101177.31;;;18.77;58.96
62617;BME280;62539;51.190;6.808;2022-11-03T03:04:33;101176.47;;;18.77;58.03
62617;BME280;62539;51.190;6.808;2022-11-03T03:07:04;101168.69;;;18.72;57.95
62617;BME280;62539;51.190;6.808;2022-11-03T03:09:50;101169.06;;;18.60;58.05
62617;BME280;62539;51.190;6.808;2022-11-03T03:12:25;101161.91;;;18.65;57.44
62617;BME280;62539;51.190;6.808;2022-11-03T03:14:52;101167.25;;;18.62;57.88
62617;BME280;62539;51.190;6.808;2022-11-03T03:22:46;101157.63;;;18.61;57.90
62617;BME280;62539;51.190;6.808;2022-11-03T03:25:23;101150.72;;;18.58;57.94
62617;BME280;62539;51.190;6.808;2022-11-03T03:27:59;101143.06;;;18.50;57.91
62617;BME280;62539;51.190;6.808;2022-11-03T03:30:31;101142.09;;;18.53;57.54
62617;BME280;62539;51.190;6.808;2022-11-03T03:33:00;101141.28;;;18.51;57.71
62617;BME280;62539;51.190;6.808;2022-11-03T03:35:29;101138.81;;;18.46;57.80
62617;BME280;62539;51.190;6.808;2022-11-03T03:38:00;101145.81;;;18.46;57.34
62617;BME280;62539;51.190;6.808;2022-11-03T03:40:35;101144.97;;;18.45;57.73
62617;BME280;62539;51.190;6.808;2022-11-03T03:43:05;101136.34;;;18.40;57.69
62617;BME280;62539;51.190;6.808;2022-11-03T03:45:36;101130.19;;;18.41;57.62
62617;BME280;62539;51.190;6.808;2022-11-03T03:48:04;101138.16;;;18.38;57.84
62617;BME280;62539;51.190;6.808;2022-11-03T03:50:34;101133.59;;;18.45;57.79
62617;BME280;62539;51.190;6.808;2022-11-03T03:53:04;101126.50;;;18.48;58.19
62617;BME280;62539;51.190;6.808;2022-11-03T03:55:36;101119.13;;;18.30;57.30
62617;BME280;62539;51.190;6.808;2022-11-03T03:58:04;101117.16;;;18.38;58.09
62617;BME280;62539;51.190;6.808;2022-11-03T04:00:31;101117.97;;;18.40;58.02
62617;BME280;62539;51.190;6.808;2022-11-03T04:02:57;101120.69;;;18.37;57.10
62617;BME280;62539;51.190;6.808;2022-11-03T04:05:23;101106.72;;;18.35;58.02
62617;BME280;62539;51.190;6.808;2022-11-03T04:07:49;101108.44;;;18.36;57.95
62617;BME280;62539;51.190;6.808;2022-11-03T04:10:17;101109.31;;;18.36;57.71
62617;BME280;62539;51.190;6.808;2022-11-03T04:12:44;101106.56;;;18.41;58.09
62617;BME280;62539;51.190;6.808;2022-11-03T04:15:29;101103.84;;;18.44;57.80
62617;BME280;62539;51.190;6.808;2022-11-03T04:18:27;101097.72;;;18.44;58.18
62617;BME280;62539;51.190;6.808;2022-11-03T04:21:12;101096.72;;;18.48;58.24
62617;BME280;62539;51.190;6.808;2022-11-03T04:23:57;101097.50;;;18.51;58.20
62617;BME280;62539;51.190;6.808;2022-11-03T04:26:26;101086.03;;;18.54;58.20
62617;BME280;62539;51.190;6.808;2022-11-03T04:28:52;101087.84;;;18.52;58.15
62617;BME280;62539;51.190;6.808;2022-11-03T04:31:20;101093.25;;;18.47;57.68
62617;BME280;62539;51.190;6.808;2022-11-03T04:33:47;101094.91;;;18.50;58.25
62617;BME280;62539;51.190;6.808;2022-11-03T04:36:19;101092.19;;;18.53;58.38
62617;BME280;62539;51.190;6.808;2022-11-03T04:38:47;101093.06;;;18.54;58.30
62617;BME280;62539;51.190;6.808;2022-11-03T04:41:19;101081.75;;;18.51;58.15
62617;BME280;62539;51.190;6.808;2022-11-03T04:43:56;101083.56;;;18.49;57.04
62617;BME280;62539;51.190;6.808;2022-11-03T04:46:30;101083.56;;;18.49;57.42
62617;BME280;62539;51.190;6.808;2022-11-03T04:48:58;101075.88;;;18.42;57.84
62617;BME280;62539;51.190;6.808;2022-11-03T04:51:27;101070.50;;;18.46;58.24
62617;BME280;62539;51.190;6.808;2022-11-03T04:54:04;101081.19;;;18.40;57.74
62617;BME280;62539;51.190;6.808;2022-11-03T04:56:39;101074.94;;;18.44;58.32
62617;BME280;62539;51.190;6.808;2022-11-03T04:59:09;101062.91;;;18.37;57.79
62617;BME280;62539;51.190;6.808;2022-11-03T05:01:36;101064.72;;;18.35;57.49
62617;BME280;62539;51.190;6.808;2022-11-03T05:04:07;101061.19;;;18.36;58.41
62617;BME280;62539;51.190;6.808;2022-11-03T05:06:37;101054.97;;;18.39;57.88
62617;BME280;62539;51.190;6.808;2022-11-03T05:09:13;101049.75;;;18.37;57.71
62617;BME280;62539;51.190;6.808;2022-11-03T05:11:43;101040.06;;;18.39;57.82
62617;BME280;62539;51.190;6.808;2022-11-03T05:14:27;101038.34;;;18.38;57.88
62617;BME280;62539;51.190;6.808;2022-11-03T05:16:55;101041.38;;;18.24;57.72
62617;BME280;62539;51.190;6.808;2022-11-03T05:19:29;101031.00;;;18.19;58.27
62617;BME280;62539;51.190;6.808;2022-11-03T05:21:59;101029.84;;;18.30;57.98
62617;BME280;62539;51.190;6.808;2022-11-03T05:24:28;101006.94;;;18.35;58.57
62617;BME280;62539;51.190;6.808;2022-11-03T05:26:56;101013.72;;;18.42;58.24
62617;BME280;62539;51.190;6.808;2022-11-03T05:29:35;101012.75;;;18.45;58.37
62617;BME280;62539;51.190;6.808;2022-11-03T05:32:09;101010.94;;;18.47;59.04
62617;BME280;62539;51.190;6.808;2022-11-03T05:34:41;100998.53;;;18.52;58.89
62617;BME280;62539;51.190;6.808;2022-11-03T05:37:21;101003.84;;;18.50;58.59
62617;BME280;62539;51.190;6.808;2022-11-03T05:39:49;100996.78;;;18.53;58.73
62617;BME280;62539;51.190;6.808;2022-11-03T05:44:49;100998.34;;;18.57;58.94
62617;BME280;62539;51.190;6.808;2022-11-03T05:47:29;101001.97;;;18.54;58.00
62617;BME280;62539;51.190;6.808;2022-11-03T05:50:08;100987.97;;;18.54;58.92
62617;BME280;62539;51.190;6.808;2022-11-03T05:52:40;100988.72;;;18.57;58.65
62617;BME280;62539;51.190;6.808;2022-11-03T05:55:27;100971.31;;;18.55;58.34
62617;BME280;62539;51.190;6.808;2022-11-03T05:57:58;100970.34;;;18.57;58.71
62617;BME280;62539;51.190;6.808;2022-11-03T06:00:36;100973.97;;;18.53;58.12
62617;BME280;62539;51.190;6.808;2022-11-03T06:03:05;100976.56;;;18.55;58.66
62617;BME280;62539;51.190;6.808;2022-11-03T06:05:31;100975.59;;;18.57;59.83
62617;BME280;62539;51.190;6.808;2022-11-03T06:08:00;100968.25;;;18.67;60.12
62617;BME280;62539;51.190;6.808;2022-11-03T06:10:38;100961.16;;;18.71;60.37
62617;BME280;62539;51.190;6.808;2022-11-03T06:15:46;100951.28;;;18.77;60.80
62617;BME280;62539;51.190;6.808;2022-11-03T06:18:18;100962.56;;;18.81;60.71
62617;BME280;62539;51.190;6.808;2022-11-03T06:20:53;100958.06;;;18.85;60.35
62617;BME280;62539;51.190;6.808;2022-11-03T06:23:22;100949.28;;;18.86;59.95
62617;BME280;62539;51.190;6.808;2022-11-03T06:25:51;100954.50;;;18.87;60.09
62617;BME280;62539;51.190;6.808;2022-11-03T06:28:32;100959.69;;;18.89;59.89
62617;BME280;62539;51.190;6.808;2022-11-03T06:31:01;100941.28;;;18.89;60.21
62617;BME280;62539;51.190;6.808;2022-11-03T06:33:35;100939.53;;;18.89;60.54
62617;BME280;62539;51.190;6.808;2022-11-03T06:36:09;100949.06;;;18.92;60.70
62617;BME280;62539;51.190;6.808;2022-11-03T06:38:40;100952.59;;;18.91;60.73
62617;BME280;62539;51.190;6.808;2022-11-03T06:41:14;100947.34;;;18.91;61.20
62617;BME280;62539;51.190;6.808;2022-11-03T06:43:47;100942.00;;;18.94;61.06
62617;BME280;62539;51.190;6.808;2022-11-03T06:46:21;100938.56;;;18.92;61.30
62617;BME280;62539;51.190;6.808;2022-11-03T06:48:48;100927.94;;;18.95;60.89
62617;BME280;62539;51.190;6.808;2022-11-03T06:51:20;100927.03;;;18.96;61.31
62617;BME280;62539;51.190;6.808;2022-11-03T06:53:52;100922.59;;;18.98;61.24
62617;BME280;62539;51.190;6.808;2022-11-03T06:56:21;100917.31;;;19.00;61.16
62617;BME280;62539;51.190;6.808;2022-11-03T06:58:55;100908.53;;;18.99;60.97
62617;BME280;62539;51.190;6.808;2022-11-03T07:01:26;100913.81;;;18.99;61.34
62617;BME280;62539;51.190;6.808;2022-11-03T07:03:57;100906.72;;;19.01;61.29
62617;BME280;62539;51.190;6.808;2022-11-03T07:06:28;100908.69;;;18.94;61.70
62617;BME280;62539;51.190;6.808;2022-11-03T07:08:58;100903.25;;;19.01;61.22
62617;BME280;62539;51.190;6.808;2022-11-03T07:11:27;100897.88;;;19.04;61.10
62617;BME280;62539;51.190;6.808;2022-11-03T07:16:51;100902.25;;;19.05;61.51
62617;BME280;62539;51.190;6.808;2022-11-03T07:19:24;100902.97;;;19.08;61.06
62617;BME280;62539;51.190;6.808;2022-11-03T07:21:57;100909.09;;;19.09;61.10
62617;BME280;62539;51.190;6.808;2022-11-03T07:24:29;100906.41;;;19.10;61.33
62617;BME280;62539;51.190;6.808;2022-11-03T07:27:14;100890.63;;;19.10;61.56
62617;BME280;62539;51.190;6.808;2022-11-03T07:29:45;100892.25;;;19.15;61.39
62617;BME280;62539;51.190;6.808;2022-11-03T07:32:18;100873.78;;;19.16;61.39
62617;BME280;62539;51.190;6.808;2022-11-03T07:34:46;100882.41;;;19.20;61.16
62617;BME280;62539;51.190;6.808;2022-11-03T07:37:17;100884.13;;;19.21;61.02
62617;BME280;62539;51.190;6.808;2022-11-03T07:39:45;100874.41;;;19.23;60.92
62617;BME280;62539;51.190;6.808;2022-11-03T07:42:14;100871.75;;;19.24;61.04
62617;BME280;62539;51.190;6.808;2022-11-03T07:44:44;100874.19;;;19.29;60.88
62617;BME280;62539;51.190;6.808;2022-11-03T07:47:21;100868.94;;;19.29;61.24
62617;BME280;62539;51.190;6.808;2022-11-03T07:49:51;100875.00;;;19.31;60.76
62617;BME280;62539;51.190;6.808;2022-11-03T07:52:22;100859.09;;;19.34;61.02
62617;BME280;62539;51.190;6.808;2022-11-03T07:54:54;100856.47;;;19.34;60.96
62617;BME280;62539;51.190;6.808;2022-11-03T07:57:22;100854.59;;;19.38;60.78
62617;BME280;62539;51.190;6.808;2022-11-03T07:59:53;100851.09;;;19.37;60.88
62617;BME280;62539;51.190;6.808;2022-11-03T08:02:29;100855.41;;;19.40;60.84
62617;BME280;62539;51.190;6.808;2022-11-03T08:04:58;100843.09;;;19.41;60.57
62617;BME280;62539;51.190;6.808;2022-11-03T08:07:24;100843.09;;;19.41;60.69
62617;BME280;62539;51.190;6.808;2022-11-03T08:09:50;100842.19;;;19.42;60.66
62617;BME280;62539;51.190;6.808;2022-11-03T08:12:16;100838.72;;;19.41;60.69
62617;BME280;62539;51.190;6.808;2022-11-03T08:14:41;100836.91;;;19.42;60.87
62617;BME280;62539;51.190;6.808;2022-11-03T08:17:07;100835.16;;;19.42;60.94
62617;BME280;62539;51.190;6.808;2022-11-03T08:19:32;100827.28;;;19.42;61.04
62617;BME280;62539;51.190;6.808;2022-11-03T08:21:58;100827.19;;;19.44;60.75
62617;BME280;62539;51.190;6.808;2022-11-03T08:24:23;100826.28;;;19.45;60.63
62617;BME280;62539;51.190;6.808;2022-11-03T08:26:48;100824.47;;;19.47;60.55
62617;BME280;62539;51.190;6.808;2022-11-03T08:29:14;100821.78;;;19.48;60.70
62617;BME280;62539;51.190;6.808;2022-11-03T08:31:41;100814.69;;;19.50;60.69
62617;BME280;62539;51.190;6.808;2022-11-03T08:34:07;100806.72;;;19.52;60.14
62617;BME280;62539;51.190;6.808;2022-11-03T08:36:33;100809.31;;;19.53;60.40
62617;BME280;62539;51.190;6.808;2022-11-03T08:38:58;100815.38;;;19.56;60.36
62617;BME280;62539;51.190;6.808;2022-11-03T08:41:24;100809.25;;;19.55;60.46
62617;BME280;62539;51.190;6.808;2022-11-03T08:43:49;100810.94;;;19.56;60.31
62617;BME280;62539;51.190;6.808;2022-11-03T08:46:14;100798.66;;;19.57;60.38
62617;BME280;62539;51.190;6.808;2022-11-03T08:48:40;100781.09;;;19.57;60.47
62617;BME280;62539;51.190;6.808;2022-11-03T08:51:05;100782.81;;;19.58;60.23
62617;BME280;62539;51.190;6.808;2022-11-03T08:53:34;100773.19;;;19.57;60.58
62617;BME280;62539;51.190;6.808;2022-11-03T08:55:59;100769.66;;;19.58;60.45
62617;BME280;62539;51.190;6.808;2022-11-03T08:58:25;100766.09;;;19.59;60.42
62617;BME280;62539;51.190;6.808;2022-11-03T09:00:50;100768.69;;;19.61;60.38
62617;BME280;62539;51.190;6.808;2022-11-03T09:03:16;100753.81;;;19.60;60.49
62617;BME280;62539;51.190;6.808;2022-11-03T09:05:42;100756.38;;;19.61;60.32
62617;BME280;62539;51.190;6.808;2022-11-03T09:08:08;100764.25;;;19.61;60.26
62617;BME280;62539;51.190;6.808;2022-11-03T09:10:34;100756.25;;;19.64;60.30
62617;BME280;62539;51.190;6.808;2022-11-03T09:13:00;100754.50;;;19.65;60.24
62617;BME280;62539;51.190;6.808;2022-11-03T09:15:25;100750.06;;;19.65;60.04
62617;BME280;62539;51.190;6.808;2022-11-03T09:17:51;100746.53;;;19.66;60.14
62617;BME280;62539;51.190;6.808;2022-11-03T09:20:16;100740.34;;;19.67;60.13
62617;BME280;62539;51.190;6.808;2022-11-03T09:22:42;100734.16;;;19.68;60.12
62617;BME280;62539;51.190;6.808;2022-11-03T09:25:08;100714.81;;;19.69;60.03
62617;BME280;62539;51.190;6.808;2022-11-03T09:27:34;100709.56;;;19.69;60.00
62617;BME280;62539;51.190;6.808;2022-11-03T09:29:59;100706.00;;;19.71;60.22
62617;BME280;62539;51.190;6.808;2022-11-03T09:32:25;100698.91;;;19.73;59.93
62617;BME280;62539;51.190;6.808;2022-11-03T09:34:50;100687.47;;;19.74;60.03
62617;BME280;62539;51.190;6.808;2022-11-03T09:37:16;100689.97;;;19.77;59.73
62617;BME280;62539;51.190;6.808;2022-11-03T09:39:42;100680.22;;;19.79;59.57
62617;BME280;62539;51.190;6.808;2022-11-03T09:42:10;100674.91;;;19.80;59.77
62617;BME280;62539;51.190;6.808;2022-11-03T09:44:36;100669.53;;;19.83;59.44
62617;BME280;62539;51.190;6.808;2022-11-03T09:47:04;100664.19;;;19.85;59.60
62617;BME280;62539;51.190;6.808;2022-11-03T09:49:31;100651.88;;;19.86;59.66
62617;BME280;62539;51.190;6.808;2022-11-03T09:51:59;100636.00;;;19.87;59.54
62617;BME280;62539;51.190;6.808;2022-11-03T09:54:26;100636.84;;;19.89;59.53
62617;BME280;62539;51.190;6.808;2022-11-03T09:56:55;100638.50;;;19.92;59.05
62617;BME280;62539;51.190;6.808;2022-11-03T09:59:23;100632.38;;;19.91;59.22
62617;BME280;62539;51.190;6.808;2022-11-03T10:01:50;100628.75;;;19.94;59.36
62617;BME280;62539;51.190;6.808;2022-11-03T10:04:27;100627.88;;;19.93;59.17
62617;BME280;62539;51.190;6.808;2022-11-03T10:06:56;100610.25;;;19.95;59.18
62617;BME280;62539;51.190;6.808;2022-11-03T10:09:23;100609.31;;;19.96;59.04
62617;BME280;62539;51.190;6.808;2022-11-03T10:11:52;100602.31;;;19.97;58.96
62617;BME280;62539;51.190;6.808;2022-11-03T10:14:20;100593.47;;;19.98;59.33
62617;BME280;62539;51.190;6.808;2022-11-03T10:16:56;100591.78;;;19.97;59.19
62617;BME280;62539;51.190;6.808;2022-11-03T10:19:26;100602.16;;;20.00;59.05
62617;BME280;62539;51.190;6.808;2022-11-03T10:21:52;100603.00;;;20.01;58.70
62617;BME280;62539;51.190;6.808;2022-11-03T10:24:18;100596.81;;;20.02;59.11
62617;BME280;62539;51.190;6.808;2022-11-03T10:26:44;100601.16;;;20.03;59.03
62617;BME280;62539;51.190;6.808;2022-11-03T10:29:25;100599.44;;;20.02;58.76
62617;BME280;62539;51.190;6.808;2022-11-03T10:31:54;100601.94;;;20.05;58.79
62617;BME280;62539;51.190;6.808;2022-11-03T10:34:34;100590.50;;;20.06;58.67
62617;BME280;62539;51.190;6.808;2022-11-03T10:39:41;100572.00;;;20.07;58.85
62617;BME280;62539;51.190;6.808;2022-11-03T10:42:16;100557.06;;;20.08;58.55
62617;BME280;62539;51.190;6.808;2022-11-03T10:44:43;100542.81;;;20.12;58.80
62617;BME280;62539;51.190;6.808;2022-11-03T10:47:24;100543.75;;;20.11;58.21
62617;BME280;62539;51.190;6.808;2022-11-03T10:49:56;100535.72;;;20.14;58.23
62617;BME280;62539;51.190;6.808;2022-11-03T10:52:24;100519.84;;;20.16;58.42
62617;BME280;62539;51.190;6.808;2022-11-03T10:54:53;100515.44;;;20.16;58.43
62617;BME280;62539;51.190;6.808;2022-11-03T10:57:22;100503.13;;;20.17;58.37
62617;BME280;62539;51.190;6.808;2022-11-03T10:59:50;100492.50;;;20.18;58.39
62617;BME280;62539;51.190;6.808;2022-11-03T11:02:20;100481.03;;;20.19;58.29
62617;BME280;62539;51.190;6.808;2022-11-03T11:04:57;100477.50;;;20.20;57.95
62617;BME280;62539;51.190;6.808;2022-11-03T11:10:05;100480.91;;;20.22;58.45
62617;BME280;62539;51.190;6.808;2022-11-03T11:12:31;100471.94;;;20.26;58.27
62617;BME280;62539;51.190;6.808;2022-11-03T11:14:59;100492.88;;;20.30;58.25
62617;BME280;62539;51.190;6.808;2022-11-03T11:17:46;100494.44;;;20.34;58.88
62617;BME280;62539;51.190;6.808;2022-11-03T11:22:48;100487.66;;;20.47;58.74
62617;BME280;62539;51.190;6.808;2022-11-03T11:25:17;100475.28;;;20.49;58.38
62617;BME280;62539;51.190;6.808;2022-11-03T11:37:49;100490.22;;;20.68;57.23
62617;BME280;62539;51.190;6.808;2022-11-03T11:48:44;100441.97;;;20.66;57.94
62617;BME280;62539;51.190;6.808;2022-11-03T11:51:26;100418.50;;;20.61;57.96
62617;BME280;62539;51.190;6.808;2022-11-03T11:53:51;100414.22;;;20.59;57.65
62617;BME280;62539;51.190;6.808;2022-11-03T11:56:17;100415.25;;;20.56;57.67
62617;BME280;62539;51.190;6.808;2022-11-03T11:58:48;100399.50;;;20.54;58.45
62617;BME280;62539;51.190;6.808;2022-11-03T12:01:25;100393.44;;;20.52;58.31
62617;BME280;62539;51.190;6.808;2022-11-03T12:04:25;100382.13;;;20.50;57.95
62617;BME280;62539;51.190;6.808;2022-11-03T12:06:54;100381.19;;;20.51;58.29
62617;BME280;62539;51.190;6.808;2022-11-03T12:09:23;100369.81;;;20.51;58.49
62617;BME280;62539;51.190;6.808;2022-11-03T12:11:59;100360.25;;;20.48;58.66
62617;BME280;62539;51.190;6.808;2022-11-03T12:16:56;100350.34;;;20.53;58.13
62617;BME280;62539;51.190;6.808;2022-11-03T12:19:42;100349.28;;;20.58;58.81
62617;BME280;62539;51.190;6.808;2022-11-03T12:24:48;100345.44;;;20.82;57.59
62617;BME280;62539;51.190;6.808;2022-11-03T12:32:20;100306.97;;;20.78;57.66
62617;BME280;62539;51.190;6.808;2022-11-03T12:34:47;100308.78;;;20.78;57.64
62617;BME280;62539;51.190;6.808;2022-11-03T12:37:12;100301.00;;;20.75;57.93
62617;BME280;62539;51.190;6.808;2022-11-03T12:39:38;100293.25;;;20.71;57.90
62617;BME280;62539;51.190;6.808;2022-11-03T12:42:04;100284.56;;;20.69;57.80
62617;BME280;62539;51.190;6.808;2022-11-03T12:44:31;100283.69;;;20.69;57.49
62617;BME280;62539;51.190;6.808;2022-11-03T12:46:57;100273.25;;;20.67;57.85
62617;BME280;62539;51.190;6.808;2022-11-03T12:49:22;100269.91;;;20.64;57.83
62617;BME280;62539;51.190;6.808;2022-11-03T12:51:48;100268.28;;;20.61;57.68
62617;BME280;62539;51.190;6.808;2022-11-03T12:54:13;100271.00;;;20.60;58.06
62617;BME280;62539;51.190;6.808;2022-11-03T12:56:39;100262.41;;;20.56;58.24
62617;BME280;62539;51.190;6.808;2022-11-03T12:59:04;100245.56;;;20.59;58.26
62617;BME280;62539;51.190;6.808;2022-11-03T13:01:30;100243.84;;;20.58;57.95
62617;BME280;62539;51.190;6.808;2022-11-03T13:03:57;100238.59;;;20.58;57.70
62617;BME280;62539;51.190;6.808;2022-11-03T13:06:22;100237.81;;;20.55;58.12
62617;BME280;62539;51.190;6.808;2022-11-03T13:08:48;100237.50;;;20.62;58.06
62617;BME280;62539;51.190;6.808;2022-11-03T13:11:14;100226.63;;;20.68;58.03
62617;BME280;62539;51.190;6.808;2022-11-03T13:13:58;100222.84;;;20.74;57.81
62617;BME280;62539;51.190;6.808;2022-11-03T13:16:23;100213.78;;;20.79;57.71
62617;BME280;62539;51.190;6.808;2022-11-03T13:18:48;100209.13;;;20.84;58.20
62617;BME280;62539;51.190;6.808;2022-11-03T13:21:14;100202.69;;;20.90;57.64
62617;BME280;62539;51.190;6.808;2022-11-03T13:23:40;100186.59;;;20.95;57.77
62617;BME280;62539;51.190;6.808;2022-11-03T13:26:06;100189.94;;;20.98;57.90
62617;BME280;62539;51.190;6.808;2022-11-03T13:28:31;100183.47;;;21.04;58.13
62617;BME280;62539;51.190;6.808;2022-11-03T13:30:57;100165.59;;;21.09;57.87
62617;BME280;62539;51.190;6.808;2022-11-03T13:33:22;100163.72;;;21.11;57.92
62617;BME280;62539;51.190;6.808;2022-11-03T13:35:47;100159.22;;;21.13;57.91
62617;BME280;62539;51.190;6.808;2022-11-03T13:38:13;100157.44;;;21.14;57.55
62617;BME280;62539;51.190;6.808;2022-11-03T13:40:38;100138.06;;;21.15;58.21
62617;BME280;62539;51.190;6.808;2022-11-03T13:43:03;100131.91;;;21.14;58.51
62617;BME280;62539;51.190;6.808;2022-11-03T13:45:29;100126.63;;;21.14;58.60
62617;BME280;62539;51.190;6.808;2022-11-03T13:47:54;100119.66;;;21.13;58.54
62617;BME280;62539;51.190;6.808;2022-11-03T13:50:21;100116.09;;;21.14;58.47
62617;BME280;62539;51.190;6.808;2022-11-03T13:52:47;100109.97;;;21.14;58.50
62617;BME280;62539;51.190;6.808;2022-11-03T13:55:13;100111.69;;;21.15;58.47
62617;BME280;62539;51.190;6.808;2022-11-03T13:57:38;100108.19;;;21.14;58.75
62617;BME280;62539;51.190;6.808;2022-11-03T14:00:04;100110.81;;;21.14;58.66
62617;BME280;62539;51.190;6.808;2022-11-03T14:02:31;100118.72;;;21.14;58.80
62617;BME280;62539;51.190;6.808;2022-11-03T14:04:56;100108.28;;;21.13;58.66
62617;BME280;62539;51.190;6.808;2022-11-03T14:07:22;100095.00;;;21.14;59.18